sensor_id;sensor_type;location;lat;lon;timestamp;P1;durP1;ratioP1;P2;durP2;ratioP2
9080;SDS011;13509;50.760;6.080;2023-05-29T00:01:09;8.33;;;3.67;;
9080;SDS011;13509;50.760;6.080;2023-05-29T00:03:37;8.27;;;3.37;;
9080;SDS011;13509;50.760;6.080;2023-05-29T00:06:06;11.70;;;4.53;;
9080;SDS011;13509;50.760;6.080;2023-05-29T00:08:35;8.00;;;3.80;;
9080;SDS011;13509;50.760;6.080;2023-05-29T00:11:04;8.00;;;3.80;;
9080;SDS011;13509;50.760;6.080;2023-05-29T00:13:33;5.97;;;4.17;;
9080;SDS011;13509;50.760;6.080;2023-05-29T00:16:01;8.50;;;3.80;;
9080;SDS011;13509;50.760;6.080;2023-05-29T00:18:31;9.67;;;3.70;;
9080;SDS011;13509;50.760;6.080;2023-05-29T00:20:59;8.23;;;3.67;;
9080;SDS011;13509;50.760;6.080;2023-05-29T00:23:27;8.47;;;3.87;;
9080;SDS011;13509;50.760;6.080;2023-05-29T00:25:56;7.53;;;4.07;;
9080;SDS011;13509;50.760;6.080;2023-05-29T00:28:26;9.00;;;4.67;;
9080;SDS011;13509;50.760;6.080;2023-05-29T00:30:54;7.13;;;3.67;;
9080;SDS011;13509;50.760;6.080;2023-05-29T00:33:22;12.50;;;3.80;;
9080;SDS011;13509;50.760;6.080;2023-05-29T00:35:50;7.73;;;3.93;;
9080;SDS011;13509;50.760;6.080;2023-05-29T00:38:19;7.57;;;3.47;;
9080;SDS011;13509;50.760;6.080;2023-05-29T00:40:47;9.53;;;3.67;;
9080;SDS011;13509;50.760;6.080;2023-05-29T00:43:15;10.50;;;4.17;;
9080;SDS011;13509;50.760;6.080;2023-05-29T00:45:45;9.83;;;3.87;;
9080;SDS011;13509;50.760;6.080;2023-05-29T00:48:13;8.77;;;4.23;;
9080;SDS011;13509;50.760;6.080;2023-05-29T00:50:41;8.27;;;4.30;;
9080;SDS011;13509;50.760;6.080;2023-05-29T00:53:10;9.13;;;4.20;;
9080;SDS011;13509;50.760;6.080;2023-05-29T00:55:38;7.50;;;3.63;;
9080;SDS011;13509;50.760;6.080;2023-05-29T00:58:06;8.50;;;3.67;;
9080;SDS011;13509;50.760;6.080;2023-05-29T01:00:34;10.53;;;4.40;;
9080;SDS011;13509;50.760;6.080;2023-05-29T01:05:46;11.60;;;3.83;;
9080;SDS011;13509;50.760;6.080;2023-05-29T01:08:15;7.20;;;3.23;;
9080;SDS011;13509;50.760;6.080;2023-05-29T01:10:43;7.87;;;3.73;;
9080;SDS011;13509;50.760;6.080;2023-05-29T01:13:14;9.17;;;3.93;;
9080;SDS011;13509;50.760;6.080;2023-05-29T01:15:44;6.47;;;3.30;;
9080;SDS011;13509;50.760;6.080;2023-05-29T01:18:19;6.60;;;3.93;;
9080;SDS011;13509;50.760;6.080;2023-05-29T01:20:55;5.93;;;3.40;;
9080;SDS011;13509;50.760;6.080;2023-05-29T01:23:34;6.27;;;3.20;;
9080;SDS011;13509;50.760;6.080;2023-05-29T01:26:11;5.23;;;3.10;;
9080;SDS011;13509;50.760;6.080;2023-05-29T01:28:42;4.40;;;3.13;;
9080;SDS011;13509;50.760;6.080;2023-05-29T01:31:12;7.37;;;3.60;;
9080;SDS011;13509;50.760;6.080;2023-05-29T01:33:41;5.87;;;3.37;;
9080;SDS011;13509;50.760;6.080;2023-05-29T01:36:09;7.03;;;3.30;;
9080;SDS011;13509;50.760;6.080;2023-05-29T01:38:37;5.50;;;2.93;;
9080;SDS011;13509;50.760;6.080;2023-05-29T01:41:06;4.40;;;2.60;;
9080;SDS011;13509;50.760;6.080;2023-05-29T01:43:34;7.10;;;2.97;;
9080;SDS011;13509;50.760;6.080;2023-05-29T01:46:04;6.10;;;2.67;;
9080;SDS011;13509;50.760;6.080;2023-05-29T01:48:33;10.43;;;3.50;;
9080;SDS011;13509;50.760;6.080;2023-05-29T01:51:01;5.97;;;3.37;;
9080;SDS011;13509;50.760;6.080;2023-05-29T01:53:29;5.80;;;3.20;;
9080;SDS011;13509;50.760;6.080;2023-05-29T01:55:58;6.13;;;3.33;;
9080;SDS011;13509;50.760;6.080;2023-05-29T01:58:26;6.07;;;3.20;;
9080;SDS011;13509;50.760;6.080;2023-05-29T02:00:55;6.70;;;2.93;;
9080;SDS011;13509;50.760;6.080;2023-05-29T02:03:25;6.80;;;3.20;;
9080;SDS011;13509;50.760;6.080;2023-05-29T02:05:56;6.90;;;2.93;;
9080;SDS011;13509;50.760;6.080;2023-05-29T02:08:24;5.40;;;3.00;;
9080;SDS011;13509;50.760;6.080;2023-05-29T02:10:53;4.40;;;3.37;;
9080;SDS011;13509;50.760;6.080;2023-05-29T02:13:22;4.23;;;3.10;;
9080;SDS011;13509;50.760;6.080;2023-05-29T02:15:50;7.93;;;3.63;;
9080;SDS011;13509;50.760;6.080;2023-05-29T02:18:18;6.47;;;3.70;;
9080;SDS011;13509;50.760;6.080;2023-05-29T02:20:48;6.83;;;3.63;;
9080;SDS011;13509;50.760;6.080;2023-05-29T02:23:16;7.63;;;3.80;;
9080;SDS011;13509;50.760;6.080;2023-05-29T02:25:45;7.70;;;4.03;;
9080;SDS011;13509;50.760;6.080;2023-05-29T02:28:13;6.97;;;4.30;;
9080;SDS011;13509;50.760;6.080;2023-05-29T02:30:42;7.10;;;4.20;;
9080;SDS011;13509;50.760;6.080;2023-05-29T02:33:10;7.67;;;3.80;;
9080;SDS011;13509;50.760;6.080;2023-05-29T02:35:38;9.67;;;4.70;;
9080;SDS011;13509;50.760;6.080;2023-05-29T02:38:08;8.67;;;4.70;;
9080;SDS011;13509;50.760;6.080;2023-05-29T02:40:36;7.87;;;4.43;;
9080;SDS011;13509;50.760;6.080;2023-05-29T02:43:05;7.80;;;4.13;;
9080;SDS011;13509;50.760;6.080;2023-05-29T02:45:33;7.53;;;4.33;;
9080;SDS011;13509;50.760;6.080;2023-05-29T02:48:01;8.77;;;4.20;;
9080;SDS011;13509;50.760;6.080;2023-05-29T02:50:30;7.47;;;4.00;;
9080;SDS011;13509;50.760;6.080;2023-05-29T02:52:58;6.30;;;4.00;;
9080;SDS011;13509;50.760;6.080;2023-05-29T02:55:28;8.83;;;4.57;;
9080;SDS011;13509;50.760;6.080;2023-05-29T02:57:58;8.63;;;4.47;;
9080;SDS011;13509;50.760;6.080;2023-05-29T03:00:27;8.70;;;4.17;;
9080;SDS011;13509;50.760;6.080;2023-05-29T03:02:56;9.87;;;4.60;;
9080;SDS011;13509;50.760;6.080;2023-05-29T03:05:24;9.63;;;4.57;;
9080;SDS011;13509;50.760;6.080;2023-05-29T03:07:53;8.67;;;4.90;;
9080;SDS011;13509;50.760;6.080;2023-05-29T03:10:21;9.60;;;4.90;;
9080;SDS011;13509;50.760;6.080;2023-05-29T03:12:51;10.23;;;4.80;;
9080;SDS011;13509;50.760;6.080;2023-05-29T03:15:20;10.57;;;5.03;;
9080;SDS011;13509;50.760;6.080;2023-05-29T03:17:48;10.23;;;5.63;;
9080;SDS011;13509;50.760;6.080;2023-05-29T03:20:17;11.13;;;5.43;;
9080;SDS011;13509;50.760;6.080;2023-05-29T03:22:45;8.10;;;4.97;;
9080;SDS011;13509;50.760;6.080;2023-05-29T03:25:13;8.70;;;5.30;;
9080;SDS011;13509;50.760;6.080;2023-05-29T03:27:42;11.23;;;4.97;;
9080;SDS011;13509;50.760;6.080;2023-05-29T03:30:12;7.47;;;5.27;;
9080;SDS011;13509;50.760;6.080;2023-05-29T03:32:40;8.80;;;5.40;;
9080;SDS011;13509;50.760;6.080;2023-05-29T03:35:08;9.17;;;5.97;;
9080;SDS011;13509;50.760;6.080;2023-05-29T03:37:36;8.63;;;5.63;;
9080;SDS011;13509;50.760;6.080;2023-05-29T03:40:05;11.40;;;5.70;;
9080;SDS011;13509;50.760;6.080;2023-05-29T03:42:34;10.23;;;5.53;;
9080;SDS011;13509;50.760;6.080;2023-05-29T03:45:02;11.13;;;5.30;;
9080;SDS011;13509;50.760;6.080;2023-05-29T03:47:32;9.20;;;5.37;;
9080;SDS011;13509;50.760;6.080;2023-05-29T03:50:00;10.30;;;5.60;;
9080;SDS011;13509;50.760;6.080;2023-05-29T03:52:29;10.57;;;5.50;;
9080;SDS011;13509;50.760;6.080;2023-05-29T03:54:57;12.70;;;5.10;;
9080;SDS011;13509;50.760;6.080;2023-05-29T03:57:25;10.67;;;5.30;;
9080;SDS011;13509;50.760;6.080;2023-05-29T03:59:53;9.90;;;5.47;;
9080;SDS011;13509;50.760;6.080;2023-05-29T04:02:22;9.47;;;5.13;;
9080;SDS011;13509;50.760;6.080;2023-05-29T04:04:51;8.67;;;5.00;;
9080;SDS011;13509;50.760;6.080;2023-05-29T04:07:21;11.20;;;5.90;;
9080;SDS011;13509;50.760;6.080;2023-05-29T04:09:50;8.83;;;4.77;;
9080;SDS011;13509;50.760;6.080;2023-05-29T04:12:18;11.83;;;5.00;;
9080;SDS011;13509;50.760;6.080;2023-05-29T04:14:47;7.17;;;4.73;;
9080;SDS011;13509;50.760;6.080;2023-05-29T04:17:15;14.03;;;5.63;;
9080;SDS011;13509;50.760;6.080;2023-05-29T04:19:43;8.30;;;4.10;;
9080;SDS011;13509;50.760;6.080;2023-05-29T04:22:13;9.50;;;4.43;;
9080;SDS011;13509;50.760;6.080;2023-05-29T04:24:41;8.50;;;4.50;;
9080;SDS011;13509;50.760;6.080;2023-05-29T04:27:09;8.70;;;4.40;;
9080;SDS011;13509;50.760;6.080;2023-05-29T04:29:39;16.40;;;4.33;;
9080;SDS011;13509;50.760;6.080;2023-05-29T04:32:08;11.33;;;4.50;;
9080;SDS011;13509;50.760;6.080;2023-05-29T04:34:37;11.50;;;4.73;;
9080;SDS011;13509;50.760;6.080;2023-05-29T04:37:06;8.17;;;3.97;;
9080;SDS011;13509;50.760;6.080;2023-05-29T04:39:35;15.80;;;4.20;;
9080;SDS011;13509;50.760;6.080;2023-05-29T04:42:04;10.57;;;4.23;;
9080;SDS011;13509;50.760;6.080;2023-05-29T04:44:33;14.63;;;4.67;;
9080;SDS011;13509;50.760;6.080;2023-05-29T04:47:01;14.20;;;4.40;;
9080;SDS011;13509;50.760;6.080;2023-05-29T04:49:30;10.73;;;4.17;;
9080;SDS011;13509;50.760;6.080;2023-05-29T04:51:58;11.87;;;4.23;;
9080;SDS011;13509;50.760;6.080;2023-05-29T04:54:26;9.67;;;3.83;;
9080;SDS011;13509;50.760;6.080;2023-05-29T04:56:56;7.73;;;3.37;;
9080;SDS011;13509;50.760;6.080;2023-05-29T04:59:25;9.77;;;3.40;;
9080;SDS011;13509;50.760;6.080;2023-05-29T05:01:53;9.87;;;3.63;;
9080;SDS011;13509;50.760;6.080;2023-05-29T05:04:22;10.67;;;3.53;;
9080;SDS011;13509;50.760;6.080;2023-05-29T05:06:50;8.03;;;3.70;;
9080;SDS011;13509;50.760;6.080;2023-05-29T05:09:18;11.30;;;3.60;;
9080;SDS011;13509;50.760;6.080;2023-05-29T05:11:47;10.17;;;3.87;;
9080;SDS011;13509;50.760;6.080;2023-05-29T05:14:16;9.07;;;2.97;;
9080;SDS011;13509;50.760;6.080;2023-05-29T05:16:44;8.87;;;3.10;;
9080;SDS011;13509;50.760;6.080;2023-05-29T05:19:13;10.73;;;3.53;;
9080;SDS011;13509;50.760;6.080;2023-05-29T05:21:41;11.03;;;3.37;;
9080;SDS011;13509;50.760;6.080;2023-05-29T05:24:10;11.57;;;3.57;;
9080;SDS011;13509;50.760;6.080;2023-05-29T05:26:38;12.83;;;3.47;;
9080;SDS011;13509;50.760;6.080;2023-05-29T05:29:06;9.73;;;2.90;;
9080;SDS011;13509;50.760;6.080;2023-05-29T05:31:36;8.40;;;3.07;;
9080;SDS011;13509;50.760;6.080;2023-05-29T05:34:04;11.83;;;2.80;;
9080;SDS011;13509;50.760;6.080;2023-05-29T05:36:32;11.23;;;3.07;;
9080;SDS011;13509;50.760;6.080;2023-05-29T05:39:01;10.27;;;2.70;;
9080;SDS011;13509;50.760;6.080;2023-05-29T05:41:29;8.97;;;3.50;;
9080;SDS011;13509;50.760;6.080;2023-05-29T05:43:57;7.90;;;2.80;;
9080;SDS011;13509;50.760;6.080;2023-05-29T05:46:26;10.93;;;3.33;;
9080;SDS011;13509;50.760;6.080;2023-05-29T05:48:55;11.50;;;3.33;;
9080;SDS011;13509;50.760;6.080;2023-05-29T05:51:24;10.17;;;2.93;;
9080;SDS011;13509;50.760;6.080;2023-05-29T05:53:53;9.57;;;3.00;;
9080;SDS011;13509;50.760;6.080;2023-05-29T05:56:21;14.10;;;3.40;;
9080;SDS011;13509;50.760;6.080;2023-05-29T05:58:50;9.53;;;2.80;;
9080;SDS011;13509;50.760;6.080;2023-05-29T06:01:18;10.20;;;3.33;;
9080;SDS011;13509;50.760;6.080;2023-05-29T06:03:46;10.10;;;2.97;;
9080;SDS011;13509;50.760;6.080;2023-05-29T06:06:16;13.40;;;3.10;;
9080;SDS011;13509;50.760;6.080;2023-05-29T06:08:45;12.97;;;3.77;;
9080;SDS011;13509;50.760;6.080;2023-05-29T06:11:15;12.80;;;2.93;;
9080;SDS011;13509;50.760;6.080;2023-05-29T06:13:43;10.90;;;3.10;;
9080;SDS011;13509;50.760;6.080;2023-05-29T06:16:12;7.87;;;2.90;;
9080;SDS011;13509;50.760;6.080;2023-05-29T06:18:40;14.33;;;3.40;;
9080;SDS011;13509;50.760;6.080;2023-05-29T06:21:08;10.33;;;2.93;;
9080;SDS011;13509;50.760;6.080;2023-05-29T06:23:38;10.07;;;3.23;;
9080;SDS011;13509;50.760;6.080;2023-05-29T06:26:07;7.53;;;2.80;;
9080;SDS011;13509;50.760;6.080;2023-05-29T06:28:37;7.17;;;2.93;;
9080;SDS011;13509;50.760;6.080;2023-05-29T06:31:06;7.67;;;2.60;;
9080;SDS011;13509;50.760;6.080;2023-05-29T06:33:35;9.97;;;3.60;;
9080;SDS011;13509;50.760;6.080;2023-05-29T06:36:04;12.50;;;3.30;;
9080;SDS011;13509;50.760;6.080;2023-05-29T06:38:33;9.80;;;3.20;;
9080;SDS011;13509;50.760;6.080;2023-05-29T06:41:02;12.63;;;3.23;;
9080;SDS011;13509;50.760;6.080;2023-05-29T06:43:31;10.50;;;3.50;;
9080;SDS011;13509;50.760;6.080;2023-05-29T06:45:59;10.90;;;3.07;;
9080;SDS011;13509;50.760;6.080;2023-05-29T06:48:28;12.97;;;3.10;;
9080;SDS011;13509;50.760;6.080;2023-05-29T06:50:56;10.07;;;3.23;;
9080;SDS011;13509;50.760;6.080;2023-05-29T06:53:24;7.63;;;3.17;;
9080;SDS011;13509;50.760;6.080;2023-05-29T06:55:52;11.80;;;3.60;;
9080;SDS011;13509;50.760;6.080;2023-05-29T06:58:22;10.00;;;3.37;;
9080;SDS011;13509;50.760;6.080;2023-05-29T07:00:51;8.50;;;2.77;;
9080;SDS011;13509;50.760;6.080;2023-05-29T07:03:19;6.20;;;2.73;;
9080;SDS011;13509;50.760;6.080;2023-05-29T07:05:48;11.57;;;3.57;;
9080;SDS011;13509;50.760;6.080;2023-05-29T07:08:16;9.10;;;3.07;;
9080;SDS011;13509;50.760;6.080;2023-05-29T07:10:45;16.20;;;3.80;;
9080;SDS011;13509;50.760;6.080;2023-05-29T07:13:14;10.70;;;3.53;;
9080;SDS011;13509;50.760;6.080;2023-05-29T07:15:45;10.07;;;3.63;;
9080;SDS011;13509;50.760;6.080;2023-05-29T07:18:13;9.63;;;3.47;;
9080;SDS011;13509;50.760;6.080;2023-05-29T07:20:42;9.03;;;3.47;;
9080;SDS011;13509;50.760;6.080;2023-05-29T07:23:10;10.37;;;3.60;;
9080;SDS011;13509;50.760;6.080;2023-05-29T07:25:38;10.77;;;3.37;;
9080;SDS011;13509;50.760;6.080;2023-05-29T07:28:07;8.90;;;3.27;;
9080;SDS011;13509;50.760;6.080;2023-05-29T07:30:48;9.33;;;3.33;;
9080;SDS011;13509;50.760;6.080;2023-05-29T07:33:17;11.37;;;3.60;;
9080;SDS011;13509;50.760;6.080;2023-05-29T07:35:45;11.20;;;3.90;;
9080;SDS011;13509;50.760;6.080;2023-05-29T07:38:14;7.83;;;3.07;;
9080;SDS011;13509;50.760;6.080;2023-05-29T07:40:42;7.60;;;3.00;;
9080;SDS011;13509;50.760;6.080;2023-05-29T07:43:10;10.87;;;3.33;;
9080;SDS011;13509;50.760;6.080;2023-05-29T07:45:38;10.10;;;3.27;;
9080;SDS011;13509;50.760;6.080;2023-05-29T07:48:08;13.20;;;3.67;;
9080;SDS011;13509;50.760;6.080;2023-05-29T07:50:36;10.23;;;3.10;;
9080;SDS011;13509;50.760;6.080;2023-05-29T07:53:05;8.87;;;3.63;;
9080;SDS011;13509;50.760;6.080;2023-05-29T07:55:33;12.50;;;3.27;;
9080;SDS011;13509;50.760;6.080;2023-05-29T07:58:02;11.87;;;4.10;;
9080;SDS011;13509;50.760;6.080;2023-05-29T08:00:30;12.17;;;3.97;;
9080;SDS011;13509;50.760;6.080;2023-05-29T08:02:59;10.40;;;3.83;;
9080;SDS011;13509;50.760;6.080;2023-05-29T08:05:30;11.50;;;3.63;;
9080;SDS011;13509;50.760;6.080;2023-05-29T08:07:59;9.90;;;3.47;;
9080;SDS011;13509;50.760;6.080;2023-05-29T08:10:27;9.33;;;3.20;;
9080;SDS011;13509;50.760;6.080;2023-05-29T08:12:55;10.23;;;3.30;;
9080;SDS011;13509;50.760;6.080;2023-05-29T08:15:23;5.33;;;3.00;;
9080;SDS011;13509;50.760;6.080;2023-05-29T08:17:52;9.03;;;3.80;;
9080;SDS011;13509;50.760;6.080;2023-05-29T08:20:21;9.07;;;3.60;;
9080;SDS011;13509;50.760;6.080;2023-05-29T08:22:51;12.13;;;3.37;;
9080;SDS011;13509;50.760;6.080;2023-05-29T08:25:19;8.93;;;2.93;;
9080;SDS011;13509;50.760;6.080;2023-05-29T08:27:48;9.97;;;3.37;;
9080;SDS011;13509;50.760;6.080;2023-05-29T08:30:16;10.60;;;3.77;;
9080;SDS011;13509;50.760;6.080;2023-05-29T08:32:44;9.03;;;3.33;;
9080;SDS011;13509;50.760;6.080;2023-05-29T08:35:13;16.60;;;3.70;;
9080;SDS011;13509;50.760;6.080;2023-05-29T08:37:41;9.93;;;3.10;;
9080;SDS011;13509;50.760;6.080;2023-05-29T08:40:11;7.17;;;3.30;;
9080;SDS011;13509;50.760;6.080;2023-05-29T08:42:40;12.07;;;3.83;;
9080;SDS011;13509;50.760;6.080;2023-05-29T08:45:12;8.93;;;3.77;;
9080;SDS011;13509;50.760;6.080;2023-05-29T08:47:41;12.87;;;3.67;;
9080;SDS011;13509;50.760;6.080;2023-05-29T08:50:12;9.73;;;3.77;;
9080;SDS011;13509;50.760;6.080;2023-05-29T08:52:41;12.03;;;3.53;;
9080;SDS011;13509;50.760;6.080;2023-05-29T08:55:11;11.13;;;4.27;;
9080;SDS011;13509;50.760;6.080;2023-05-29T08:57:39;12.37;;;4.10;;
9080;SDS011;13509;50.760;6.080;2023-05-29T09:00:10;10.17;;;3.80;;
9080;SDS011;13509;50.760;6.080;2023-05-29T09:02:39;11.83;;;3.57;;
9080;SDS011;13509;50.760;6.080;2023-05-29T09:05:07;10.87;;;3.70;;
9080;SDS011;13509;50.760;6.080;2023-05-29T09:07:36;12.20;;;3.43;;
9080;SDS011;13509;50.760;6.080;2023-05-29T09:10:06;13.10;;;4.23;;
9080;SDS011;13509;50.760;6.080;2023-05-29T09:12:35;9.67;;;4.27;;
9080;SDS011;13509;50.760;6.080;2023-05-29T09:15:06;11.47;;;4.13;;
9080;SDS011;13509;50.760;6.080;2023-05-29T09:17:36;15.00;;;3.80;;
9080;SDS011;13509;50.760;6.080;2023-05-29T09:20:06;11.43;;;3.83;;
9080;SDS011;13509;50.760;6.080;2023-05-29T09:22:46;8.47;;;4.00;;
9080;SDS011;13509;50.760;6.080;2023-05-29T09:25:20;12.00;;;3.97;;
9080;SDS011;13509;50.760;6.080;2023-05-29T09:27:53;9.60;;;3.80;;
9080;SDS011;13509;50.760;6.080;2023-05-29T09:30:32;10.07;;;3.90;;
9080;SDS011;13509;50.760;6.080;2023-05-29T09:33:01;11.13;;;3.73;;
9080;SDS011;13509;50.760;6.080;2023-05-29T09:35:33;9.97;;;4.03;;
9080;SDS011;13509;50.760;6.080;2023-05-29T09:38:02;13.57;;;4.87;;
9080;SDS011;13509;50.760;6.080;2023-05-29T09:40:31;12.73;;;4.47;;
9080;SDS011;13509;50.760;6.080;2023-05-29T09:43:04;11.63;;;4.03;;
9080;SDS011;13509;50.760;6.080;2023-05-29T09:45:36;10.83;;;4.03;;
9080;SDS011;13509;50.760;6.080;2023-05-29T09:48:06;11.50;;;4.43;;
9080;SDS011;13509;50.760;6.080;2023-05-29T09:50:34;11.07;;;4.50;;
9080;SDS011;13509;50.760;6.080;2023-05-29T09:53:02;14.67;;;4.50;;
9080;SDS011;13509;50.760;6.080;2023-05-29T09:55:33;12.73;;;4.53;;
9080;SDS011;13509;50.760;6.080;2023-05-29T09:58:02;12.20;;;4.53;;
9080;SDS011;13509;50.760;6.080;2023-05-29T10:00:32;13.33;;;4.40;;
9080;SDS011;13509;50.760;6.080;2023-05-29T10:03:01;15.67;;;5.20;;
9080;SDS011;13509;50.760;6.080;2023-05-29T10:05:30;12.80;;;4.77;;
9080;SDS011;13509;50.760;6.080;2023-05-29T10:07:59;14.70;;;4.73;;
9080;SDS011;13509;50.760;6.080;2023-05-29T10:10:28;11.83;;;4.10;;
9080;SDS011;13509;50.760;6.080;2023-05-29T10:12:59;14.07;;;4.10;;
9080;SDS011;13509;50.760;6.080;2023-05-29T10:15:30;12.30;;;4.07;;
9080;SDS011;13509;50.760;6.080;2023-05-29T10:18:01;14.63;;;5.10;;
9080;SDS011;13509;50.760;6.080;2023-05-29T10:20:31;11.50;;;3.90;;
9080;SDS011;13509;50.760;6.080;2023-05-29T10:23:00;10.47;;;4.10;;
9080;SDS011;13509;50.760;6.080;2023-05-29T10:25:29;11.00;;;3.67;;
9080;SDS011;13509;50.760;6.080;2023-05-29T10:27:58;12.80;;;4.07;;
9080;SDS011;13509;50.760;6.080;2023-05-29T10:30:29;14.93;;;3.70;;
9080;SDS011;13509;50.760;6.080;2023-05-29T10:33:09;18.30;;;4.30;;
9080;SDS011;13509;50.760;6.080;2023-05-29T10:35:42;11.73;;;4.00;;
9080;SDS011;13509;50.760;6.080;2023-05-29T10:38:13;11.50;;;3.83;;
9080;SDS011;13509;50.760;6.080;2023-05-29T10:40:43;14.37;;;4.10;;
9080;SDS011;13509;50.760;6.080;2023-05-29T10:45:54;10.80;;;4.17;;
9080;SDS011;13509;50.760;6.080;2023-05-29T10:48:37;12.43;;;4.03;;
9080;SDS011;13509;50.760;6.080;2023-05-29T10:51:05;13.37;;;3.80;;
9080;SDS011;13509;50.760;6.080;2023-05-29T10:53:36;8.57;;;3.93;;
9080;SDS011;13509;50.760;6.080;2023-05-29T10:56:08;14.60;;;4.23;;
9080;SDS011;13509;50.760;6.080;2023-05-29T10:58:38;11.10;;;4.10;;
9080;SDS011;13509;50.760;6.080;2023-05-29T11:01:08;11.60;;;3.63;;
9080;SDS011;13509;50.760;6.080;2023-05-29T11:03:38;10.80;;;4.13;;
9080;SDS011;13509;50.760;6.080;2023-05-29T11:06:07;14.30;;;3.87;;
9080;SDS011;13509;50.760;6.080;2023-05-29T11:08:41;18.37;;;4.50;;
9080;SDS011;13509;50.760;6.080;2023-05-29T11:11:11;16.13;;;4.00;;
9080;SDS011;13509;50.760;6.080;2023-05-29T11:13:40;12.67;;;4.00;;
9080;SDS011;13509;50.760;6.080;2023-05-29T11:16:11;15.37;;;3.93;;
9080;SDS011;13509;50.760;6.080;2023-05-29T11:18:42;13.63;;;3.83;;
9080;SDS011;13509;50.760;6.080;2023-05-29T11:21:22;12.40;;;3.93;;
9080;SDS011;13509;50.760;6.080;2023-05-29T11:23:54;15.33;;;3.90;;
9080;SDS011;13509;50.760;6.080;2023-05-29T11:26:25;12.57;;;3.77;;
9080;SDS011;13509;50.760;6.080;2023-05-29T11:28:57;11.73;;;4.03;;
9080;SDS011;13509;50.760;6.080;2023-05-29T11:31:26;10.80;;;3.90;;
9080;SDS011;13509;50.760;6.080;2023-05-29T11:34:01;11.90;;;4.03;;
9080;SDS011;13509;50.760;6.080;2023-05-29T11:36:32;11.93;;;4.40;;
9080;SDS011;13509;50.760;6.080;2023-05-29T11:39:01;17.47;;;4.20;;
9080;SDS011;13509;50.760;6.080;2023-05-29T11:41:31;13.87;;;4.57;;
9080;SDS011;13509;50.760;6.080;2023-05-29T11:44:00;12.37;;;4.20;;
9080;SDS011;13509;50.760;6.080;2023-05-29T11:46:29;13.40;;;3.90;;
9080;SDS011;13509;50.760;6.080;2023-05-29T11:48:58;12.13;;;4.50;;
9080;SDS011;13509;50.760;6.080;2023-05-29T11:51:31;12.53;;;4.70;;
9080;SDS011;13509;50.760;6.080;2023-05-29T11:53:59;15.47;;;4.10;;
9080;SDS011;13509;50.760;6.080;2023-05-29T11:56:28;15.53;;;4.83;;
9080;SDS011;13509;50.760;6.080;2023-05-29T11:58:58;13.97;;;4.43;;
9080;SDS011;13509;50.760;6.080;2023-05-29T12:01:27;12.03;;;3.60;;
9080;SDS011;13509;50.760;6.080;2023-05-29T12:03:56;19.03;;;4.17;;
9080;SDS011;13509;50.760;6.080;2023-05-29T12:06:31;12.33;;;4.37;;
9080;SDS011;13509;50.760;6.080;2023-05-29T12:09:02;12.47;;;4.10;;
9080;SDS011;13509;50.760;6.080;2023-05-29T12:11:31;12.27;;;4.17;;
9080;SDS011;13509;50.760;6.080;2023-05-29T12:14:01;11.77;;;4.53;;
9080;SDS011;13509;50.760;6.080;2023-05-29T12:16:32;11.23;;;4.03;;
9080;SDS011;13509;50.760;6.080;2023-05-29T12:19:02;13.50;;;3.73;;
9080;SDS011;13509;50.760;6.080;2023-05-29T12:21:35;10.93;;;3.67;;
9080;SDS011;13509;50.760;6.080;2023-05-29T12:24:04;9.47;;;3.33;;
9080;SDS011;13509;50.760;6.080;2023-05-29T12:26:41;9.37;;;3.20;;
9080;SDS011;13509;50.760;6.080;2023-05-29T12:29:10;11.17;;;3.83;;
9080;SDS011;13509;50.760;6.080;2023-05-29T12:31:42;13.77;;;4.23;;
9080;SDS011;13509;50.760;6.080;2023-05-29T12:34:11;11.43;;;3.63;;
9080;SDS011;13509;50.760;6.080;2023-05-29T12:36:50;13.57;;;4.00;;
9080;SDS011;13509;50.760;6.080;2023-05-29T12:39:18;15.93;;;4.30;;
9080;SDS011;13509;50.760;6.080;2023-05-29T12:41:48;10.27;;;4.03;;
9080;SDS011;13509;50.760;6.080;2023-05-29T12:44:16;13.60;;;4.27;;
9080;SDS011;13509;50.760;6.080;2023-05-29T12:46:46;14.37;;;4.10;;
9080;SDS011;13509;50.760;6.080;2023-05-29T12:49:15;13.37;;;3.80;;
9080;SDS011;13509;50.760;6.080;2023-05-29T12:51:45;10.93;;;3.87;;
9080;SDS011;13509;50.760;6.080;2023-05-29T12:54:15;14.07;;;4.00;;
9080;SDS011;13509;50.760;6.080;2023-05-29T12:56:44;11.60;;;4.30;;
9080;SDS011;13509;50.760;6.080;2023-05-29T12:59:12;13.00;;;3.70;;
9080;SDS011;13509;50.760;6.080;2023-05-29T13:01:41;13.47;;;3.70;;
9080;SDS011;13509;50.760;6.080;2023-05-29T13:04:10;9.80;;;3.83;;
9080;SDS011;13509;50.760;6.080;2023-05-29T13:06:39;12.30;;;3.53;;
9080;SDS011;13509;50.760;6.080;2023-05-29T13:09:08;14.03;;;3.90;;
9080;SDS011;13509;50.760;6.080;2023-05-29T13:11:38;11.97;;;3.30;;
9080;SDS011;13509;50.760;6.080;2023-05-29T13:14:06;14.03;;;4.13;;
9080;SDS011;13509;50.760;6.080;2023-05-29T13:16:34;13.30;;;3.97;;
9080;SDS011;13509;50.760;6.080;2023-05-29T13:19:03;11.67;;;3.63;;
9080;SDS011;13509;50.760;6.080;2023-05-29T13:21:31;11.20;;;3.40;;
9080;SDS011;13509;50.760;6.080;2023-05-29T13:24:00;9.73;;;3.97;;
9080;SDS011;13509;50.760;6.080;2023-05-29T13:26:28;14.30;;;3.50;;
9080;SDS011;13509;50.760;6.080;2023-05-29T13:28:58;21.00;;;4.23;;
9080;SDS011;13509;50.760;6.080;2023-05-29T13:31:26;8.77;;;3.53;;
9080;SDS011;13509;50.760;6.080;2023-05-29T13:33:55;11.60;;;3.40;;
9080;SDS011;13509;50.760;6.080;2023-05-29T13:36:23;12.53;;;3.80;;
9080;SDS011;13509;50.760;6.080;2023-05-29T13:38:51;8.40;;;3.63;;
9080;SDS011;13509;50.760;6.080;2023-05-29T13:41:19;10.77;;;3.33;;
9080;SDS011;13509;50.760;6.080;2023-05-29T13:43:48;11.60;;;3.40;;
9080;SDS011;13509;50.760;6.080;2023-05-29T13:46:17;9.67;;;3.67;;
9080;SDS011;13509;50.760;6.080;2023-05-29T13:48:46;9.90;;;3.40;;
9080;SDS011;13509;50.760;6.080;2023-05-29T13:51:14;10.47;;;3.23;;
9080;SDS011;13509;50.760;6.080;2023-05-29T13:53:42;10.93;;;3.53;;
9080;SDS011;13509;50.760;6.080;2023-05-29T13:56:10;11.10;;;3.53;;
9080;SDS011;13509;50.760;6.080;2023-05-29T13:58:39;15.50;;;4.00;;
9080;SDS011;13509;50.760;6.080;2023-05-29T14:01:08;11.67;;;3.70;;
9080;SDS011;13509;50.760;6.080;2023-05-29T14:03:37;12.27;;;3.80;;
9080;SDS011;13509;50.760;6.080;2023-05-29T14:06:08;9.80;;;3.30;;
9080;SDS011;13509;50.760;6.080;2023-05-29T14:08:37;11.20;;;3.83;;
9080;SDS011;13509;50.760;6.080;2023-05-29T14:11:05;12.27;;;3.90;;
9080;SDS011;13509;50.760;6.080;2023-05-29T14:13:34;10.43;;;3.63;;
9080;SDS011;13509;50.760;6.080;2023-05-29T14:16:02;12.27;;;3.53;;
9080;SDS011;13509;50.760;6.080;2023-05-29T14:18:30;7.80;;;3.40;;
9080;SDS011;13509;50.760;6.080;2023-05-29T14:21:00;15.57;;;4.20;;
9080;SDS011;13509;50.760;6.080;2023-05-29T14:23:28;10.50;;;3.50;;
9080;SDS011;13509;50.760;6.080;2023-05-29T14:25:56;11.27;;;3.50;;
9080;SDS011;13509;50.760;6.080;2023-05-29T14:28:25;11.33;;;3.30;;
9080;SDS011;13509;50.760;6.080;2023-05-29T14:30:53;10.27;;;3.47;;
9080;SDS011;13509;50.760;6.080;2023-05-29T14:33:21;12.00;;;3.57;;
9080;SDS011;13509;50.760;6.080;2023-05-29T14:35:51;10.50;;;3.60;;
9080;SDS011;13509;50.760;6.080;2023-05-29T14:38:21;9.87;;;4.10;;
9080;SDS011;13509;50.760;6.080;2023-05-29T14:40:49;10.70;;;3.17;;
9080;SDS011;13509;50.760;6.080;2023-05-29T14:43:34;8.87;;;3.43;;
9080;SDS011;13509;50.760;6.080;2023-05-29T14:46:02;12.40;;;3.40;;
9080;SDS011;13509;50.760;6.080;2023-05-29T14:48:31;8.87;;;3.47;;
9080;SDS011;13509;50.760;6.080;2023-05-29T14:50:59;10.23;;;3.80;;
9080;SDS011;13509;50.760;6.080;2023-05-29T14:53:29;14.17;;;4.00;;
9080;SDS011;13509;50.760;6.080;2023-05-29T14:55:57;11.70;;;3.60;;
9080;SDS011;13509;50.760;6.080;2023-05-29T14:58:26;7.27;;;3.83;;
9080;SDS011;13509;50.760;6.080;2023-05-29T15:00:54;9.30;;;3.67;;
9080;SDS011;13509;50.760;6.080;2023-05-29T15:03:23;8.10;;;3.50;;
9080;SDS011;13509;50.760;6.080;2023-05-29T15:05:53;11.57;;;3.30;;
9080;SDS011;13509;50.760;6.080;2023-05-29T15:08:22;11.37;;;3.83;;
9080;SDS011;13509;50.760;6.080;2023-05-29T15:10:51;11.57;;;4.00;;